Time;durP1;ratioP1;P1;durP2;ratioP2;P2;SDS_P1;SDS_P2;PMS_P1;PMS_P2;Temp;Humidity;BMP_temperature;BMP_pressure;BME280_temperature;BME280_humidity;BME280_pressure;Samples;Min_cycle;Max_cycle;Signal;HPM_P1;HPM_P2
2022/07/15 00:01:09;;;;;;;1968.68;999.90;;;13.10;1.00;;;;;;4888732;29;20056;-76
2022/07/15 00:03:35;;;;;;;1999.90;999.90;;;13.20;1.00;;;;;;4887433;29;20071;-83
2022/07/15 00:06:00;;;;;;;1999.90;869.30;;;13.30;1.00;;;;;;4888421;29;20104;-77
2022/07/15 00:08:28;;;;;;;1999.90;999.90;;;13.30;1.00;;;;;;4885391;29;20191;-77
2022/07/15 00:10:54;;;;;;;1913.38;999.90;;;13.30;1.00;;;;;;4887539;29;20186;-79
2022/07/15 00:13:19;;;;;;;1999.90;999.90;;;13.40;1.00;;;;;;4887415;29;20044;-89
2022/07/15 00:15:45;;;;;;;1999.90;999.90;;;13.40;1.00;;;;;;4886110;29;20080;-77
2022/07/15 00:18:11;;;;;;;1999.90;999.90;;;13.40;1.00;;;;;;4888906;29;20517;-77
2022/07/15 00:20:38;;;;;;;1999.90;999.90;;;13.50;1.00;;;;;;4891597;29;20505;-77
2022/07/15 00:23:05;;;;;;;1999.90;999.90;;;13.50;1.00;;;;;;4893248;29;20063;-76
2022/07/15 00:25:31;;;;;;;1999.90;999.90;;;13.50;1.00;;;;;;4893179;29;20041;-77
2022/07/15 00:28:00;;;;;;;1999.90;999.90;;;13.50;1.00;;;;;;4889517;29;20122;-77
2022/07/15 00:30:40;;;;;;;1999.90;999.90;;;13.50;1.00;;;;;;4891329;29;20562;-78
2022/07/15 00:33:07;;;;;;;1527.93;999.90;;;13.50;1.00;;;;;;4892454;29;20040;-80
2022/07/15 00:35:34;;;;;;;1999.90;999.90;;;13.50;1.00;;;;;;4894610;29;20484;-77
2022/07/15 00:38:00;;;;;;;1999.90;999.90;;;13.50;1.00;;;;;;4890155;29;20498;-77
2022/07/15 00:40:26;;;;;;;1999.90;999.90;;;13.50;1.00;;;;;;4891666;29;20147;-85
2022/07/15 00:42:52;;;;;;;1999.90;999.90;;;13.50;1.00;;;;;;4888084;29;20048;-78
2022/07/15 00:45:20;;;;;;;1820.65;999.90;;;13.60;1.00;;;;;;4891565;29;20041;-77
2022/07/15 00:47:49;;;;;;;1894.35;999.90;;;13.60;1.00;;;;;;4894870;29;20055;-77
2022/07/15 00:50:16;;;;;;;1999.90;999.90;;;13.60;1.00;;;;;;4890472;29;20092;-78
2022/07/15 00:52:45;;;;;;;1999.90;999.90;;;13.70;1.00;;;;;;4889950;29;20049;-90
2022/07/15 00:55:12;;;;;;;1600.90;999.90;;;13.70;1.00;;;;;;4891610;29;20119;-77
2022/07/15 00:57:42;;;;;;;1594.72;995.75;;;13.70;1.00;;;;;;4892467;29;20044;-77
2022/07/15 01:00:10;;;;;;;1721.03;992.30;;;13.80;1.00;;;;;;4887856;29;20478;-77
2022/07/15 01:02:37;;;;;;;1533.45;999.90;;;13.80;1.00;;;;;;4892072;29;20076;-87
2022/07/15 01:05:05;;;;;;;1999.90;999.90;;;13.80;1.00;;;;;;4891413;29;20048;-77
2022/07/15 01:07:31;;;;;;;;;;;13.80;1.00;;;;;;4891585;29;20083;-81
2022/07/15 01:09:57;;;;;;;1611.22;992.05;;;13.90;1.00;;;;;;4890937;29;19928;-77
2022/07/15 01:12:23;;;;;;;1999.90;999.90;;;13.80;1.00;;;;;;4892019;29;20092;-77
2022/07/15 01:14:49;;;;;;;1855.90;999.90;;;13.80;1.00;;;;;;4888496;29;20083;-77
2022/07/15 01:17:15;;;;;;;1999.90;999.90;;;13.70;1.00;;;;;;4896280;29;20376;-78
2022/07/15 01:19:41;;;;;;;1951.82;999.90;;;13.70;1.00;;;;;;4886599;29;20100;-78
2022/07/15 01:22:07;;;;;;;1821.40;999.90;;;13.60;1.00;;;;;;4888681;29;20049;-77
2022/07/15 01:24:34;;;;;;;1978.63;999.90;;;13.50;1.00;;;;;;4887788;29;20176;-77
2022/07/15 01:27:00;;;;;;;1963.13;999.90;;;13.50;1.00;;;;;;4885246;29;20052;-77
2022/07/15 01:29:27;;;;;;;1829.45;999.90;;;13.50;1.00;;;;;;4885858;29;20076;-78
2022/07/15 01:31:53;;;;;;;1999.90;999.90;;;13.40;1.00;;;;;;4869829;29;20060;-77
2022/07/15 01:34:19;;;;;;;1774.15;999.90;;;13.50;1.00;;;;;;4887655;29;20063;-77
2022/07/15 01:36:45;;;;;;;1999.90;999.90;;;13.50;1.00;;;;;;4884467;29;20052;-82
2022/07/15 01:39:11;;;;;;;1996.00;999.90;;;13.50;1.00;;;;;;4885809;29;20040;-79
2022/07/15 01:41:37;;;;;;;1999.90;999.90;;;13.50;1.00;;;;;;4886807;29;20060;-77
2022/07/15 01:44:03;;;;;;;1999.90;999.90;;;13.60;1.00;;;;;;4886756;29;20062;-78
2022/07/15 01:46:28;;;;;;;1999.90;999.90;;;13.60;1.00;;;;;;4887215;29;20132;-77
2022/07/15 01:51:39;;;;;;;1999.90;999.90;;;13.60;1.00;;;;;;4891411;29;20071;-77
2022/07/15 01:54:05;;;;;;;1999.90;999.90;;;13.70;1.00;;;;;;4910294;29;20129;-77
2022/07/15 01:56:31;;;;;;;1999.90;999.90;;;13.50;1.00;;;;;;4889445;29;20634;-77
2022/07/15 01:58:57;;;;;;;1999.90;999.90;;;13.50;1.00;;;;;;4887879;29;20049;-78
2022/07/15 02:01:22;;;;;;;1999.90;999.90;;;13.60;1.00;;;;;;4888829;29;20060;-77
2022/07/15 02:03:48;;;;;;;1999.90;999.90;;;13.60;1.00;;;;;;4888471;29;20048;-77
2022/07/15 02:06:14;;;;;;;1999.90;999.90;;;13.50;1.00;;;;;;4888439;29;20055;-77
2022/07/15 02:08:39;;;;;;;1999.90;999.90;;;13.50;1.00;;;;;;4890534;29;20045;-77
2022/07/15 02:11:07;;;;;;;1999.90;999.90;;;13.50;1.00;;;;;;4887840;29;20131;-79
2022/07/15 02:13:33;;;;;;;1999.90;999.90;;;13.40;1.00;;;;;;4890776;29;20486;-77
2022/07/15 02:15:58;;;;;;;1999.90;999.90;;;13.40;1.00;;;;;;4890531;29;20048;-77
2022/07/15 02:18:24;;;;;;;1999.90;999.90;;;13.40;1.00;;;;;;4886789;29;20071;-77
2022/07/15 02:20:50;;;;;;;1999.90;999.90;;;13.20;1.00;;;;;;4893218;29;20099;-77
2022/07/15 02:23:16;;;;;;;1999.90;999.90;;;13.40;1.00;;;;;;4890184;29;20044;-77
2022/07/15 02:25:41;;;;;;;1999.90;999.90;;;13.10;1.00;;;;;;4887373;29;20151;-79
2022/07/15 02:28:07;;;;;;;1999.90;999.90;;;13.10;1.00;;;;;;4908777;29;20055;-77
2022/07/15 02:30:36;;;;;;;1999.90;999.90;;;13.10;1.00;;;;;;4895983;29;20055;-77
2022/07/15 02:33:02;;;;;;;1999.90;999.90;;;13.00;1.00;;;;;;4889550;29;20380;-80
2022/07/15 02:35:29;;;;;;;1999.90;999.90;;;12.90;1.00;;;;;;4890689;29;20434;-84
2022/07/15 02:37:55;;;;;;;1999.90;934.00;;;12.80;1.00;;;;;;4891391;29;20091;-77
2022/07/15 02:40:21;;;;;;;1999.90;999.90;;;12.70;1.00;;;;;;4888707;29;20865;-82
2022/07/15 02:42:51;;;;;;;1999.90;999.38;;;12.60;1.00;;;;;;4885285;29;20040;-77
2022/07/15 02:45:19;;;;;;;1999.90;999.90;;;12.50;1.00;;;;;;4889841;29;20047;-77
2022/07/15 02:47:45;;;;;;;1999.90;999.90;;;12.50;1.00;;;;;;4889632;29;20239;-77
2022/07/15 02:50:11;;;;;;;1999.90;999.90;;;12.40;1.00;;;;;;4888290;29;20088;-80
2022/07/15 02:52:36;;;;;;;1999.90;999.90;;;12.40;1.00;;;;;;4887983;29;20190;-80
2022/07/15 02:55:03;;;;;;;1999.90;999.90;;;12.30;1.00;;;;;;4886963;29;20462;-77
2022/07/15 02:57:29;;;;;;;1999.90;999.90;;;12.30;1.00;;;;;;4889837;29;20093;-77
2022/07/15 02:59:55;;;;;;;1999.90;999.90;;;12.30;1.00;;;;;;4887729;29;20072;-81
2022/07/15 03:02:20;;;;;;;1999.90;999.90;;;12.20;1.00;;;;;;4890171;29;20056;-77
2022/07/15 03:04:47;;;;;;;1999.90;999.90;;;12.20;1.00;;;;;;4887291;29;20049;-77
2022/07/15 03:07:13;;;;;;;1999.90;999.90;;;12.10;1.00;;;;;;4887672;29;20071;-83
2022/07/15 03:09:38;;;;;;;1999.90;999.90;;;12.10;1.00;;;;;;4891171;29;20498;-77
2022/07/15 03:12:04;;;;;;;1999.90;999.90;;;12.10;1.00;;;;;;4895971;29;20060;-77
2022/07/15 03:14:30;;;;;;;1999.90;999.90;;;12.00;1.00;;;;;;4897143;29;20068;-77
2022/07/15 03:16:56;;;;;;;1999.90;999.90;;;12.00;1.00;;;;;;4890189;29;20115;-77
2022/07/15 03:19:21;;;;;;;1999.90;999.90;;;12.00;1.00;;;;;;4888598;29;20076;-77
2022/07/15 03:21:48;;;;;;;1999.90;999.90;;;12.00;1.00;;;;;;4888916;29;20052;-83
2022/07/15 03:24:14;;;;;;;1999.90;999.90;;;12.00;1.00;;;;;;4888853;29;20044;-76
2022/07/15 03:26:40;;;;;;;1999.90;999.90;;;12.10;1.00;;;;;;4886685;29;20147;-79
2022/07/15 03:29:06;;;;;;;1999.90;999.90;;;12.70;1.00;;;;;;4888088;29;20052;-76
2022/07/15 03:31:32;;;;;;;1999.90;999.90;;;12.30;1.00;;;;;;4888339;29;20079;-77
2022/07/15 03:33:58;;;;;;;1999.90;999.90;;;12.40;1.00;;;;;;4892540;29;20195;-80
2022/07/15 03:36:24;;;;;;;1999.90;999.90;;;12.50;1.00;;;;;;4891131;29;20051;-80
2022/07/15 03:38:51;;;;;;;1999.90;999.90;;;12.40;1.00;;;;;;4888243;29;20045;-77
2022/07/15 03:41:21;;;;;;;1999.90;999.90;;;13.10;1.00;;;;;;4887788;29;20052;-77
2022/07/15 03:43:47;;;;;;;1999.90;999.90;;;12.30;1.00;;;;;;4889546;29;20407;-77
2022/07/15 03:46:16;;;;;;;1999.90;999.90;;;12.30;1.00;;;;;;4885974;29;20056;-77
2022/07/15 03:48:42;;;;;;;1999.90;999.90;;;12.30;1.00;;;;;;4902427;29;20033;-77
2022/07/15 03:51:08;;;;;;;1999.90;999.90;;;12.20;1.00;;;;;;4889167;29;20053;-77
2022/07/15 03:53:33;;;;;;;1999.90;999.90;;;12.10;1.00;;;;;;4896020;29;20106;-77
2022/07/15 03:55:59;;;;;;;1999.90;999.90;;;12.20;1.00;;;;;;4895016;29;20516;-77
2022/07/15 03:58:25;;;;;;;1999.90;999.90;;;12.60;1.00;;;;;;4896178;29;20044;-82
2022/07/15 04:00:50;;;;;;;1999.90;999.90;;;12.40;1.50;;;;;;4886980;29;20044;-79
2022/07/15 04:03:16;;;;;;;1999.90;999.90;;;12.00;1.00;;;;;;4888248;29;20040;-77
2022/07/15 04:05:43;;;;;;;1999.90;999.90;;;12.00;8.30;;;;;;4884723;29;20090;-84
2022/07/15 04:08:09;;;;;;;1999.90;999.90;;;12.00;28.50;;;;;;4887980;29;20040;-77
2022/07/15 04:10:35;;;;;;;1999.90;999.90;;;12.00;28.70;;;;;;4891393;29;20558;-77
2022/07/15 04:13:01;;;;;;;1999.90;999.90;;;12.00;33.90;;;;;;4887485;29;20056;-83
2022/07/15 04:15:27;;;;;;;1999.90;999.90;;;12.00;44.50;;;;;;4885200;29;20127;-76
2022/07/15 04:17:52;;;;;;;1999.90;999.90;;;12.10;44.60;;;;;;4885232;29;20056;-77
2022/07/15 04:20:18;;;;;;;1999.90;999.90;;;12.10;42.90;;;;;;4887977;29;20051;-77
2022/07/15 04:22:46;;;;;;;1999.90;999.90;;;12.10;39.50;;;;;;4888227;29;20546;-77
2022/07/15 04:25:18;;;;;;;1999.90;999.90;;;12.20;40.60;;;;;;4887820;29;20486;-77
2022/07/15 04:27:44;;;;;;;1999.90;999.90;;;12.30;47.90;;;;;;4885509;29;20183;-77
2022/07/15 04:30:11;;;;;;;1999.90;999.90;;;12.40;43.30;;;;;;4885825;29;20048;-77
2022/07/15 04:32:37;;;;;;;1999.90;999.90;;;12.40;37.50;;;;;;4887406;29;20102;-82
2022/07/15 04:35:03;;;;;;;1999.90;999.90;;;12.50;45.20;;;;;;4888063;29;20104;-77
2022/07/15 04:37:29;;;;;;;1999.90;999.90;;;12.60;47.30;;;;;;4891609;29;20048;-78
2022/07/15 04:39:55;;;;;;;1999.90;999.90;;;12.70;51.60;;;;;;4895852;29;20087;-77
2022/07/15 04:42:21;;;;;;;1999.90;999.90;;;12.90;43.00;;;;;;4891078;29;20048;-82
2022/07/15 04:44:47;;;;;;;1999.90;999.90;;;12.90;33.80;;;;;;4888479;29;20059;-77
2022/07/15 04:47:17;;;;;;;1999.90;999.90;;;13.10;25.40;;;;;;4890434;29;20435;-77
2022/07/15 04:52:27;;;;;;;1999.90;999.90;;;13.20;13.20;;;;;;4893313;29;20041;-77
2022/07/15 04:54:53;;;;;;;1999.90;999.90;;;13.40;8.70;;;;;;4891089;29;20466;-76
2022/07/15 04:57:20;;;;;;;1999.90;999.90;;;13.40;7.90;;;;;;4890743;29;20143;-77
2022/07/15 04:59:47;;;;;;;1999.90;999.90;;;13.40;6.50;;;;;;4894808;29;20054;-76
2022/07/15 05:02:12;;;;;;;1999.90;999.90;;;13.40;4.40;;;;;;4888283;29;20495;-77
2022/07/15 05:04:41;;;;;;;1999.90;999.90;;;13.40;6.60;;;;;;4891599;29;20052;-77
2022/07/15 05:07:08;;;;;;;1999.90;999.90;;;13.50;8.10;;;;;;4881061;29;20049;-83
2022/07/15 05:09:34;;;;;;;1999.90;999.90;;;13.50;7.80;;;;;;4889730;29;20064;-79
2022/07/15 05:12:00;;;;;;;1999.90;999.90;;;13.50;6.60;;;;;;4893605;29;20044;-78
2022/07/15 05:14:25;;;;;;;1999.90;999.90;;;13.50;10.00;;;;;;4893490;29;20115;-77
2022/07/15 05:16:51;;;;;;;1999.90;999.90;;;13.50;3.80;;;;;;4887233;29;20533;-77
2022/07/15 05:19:17;;;;;;;1999.90;999.90;;;14.00;1.40;;;;;;4892375;29;20105;-78
2022/07/15 05:21:42;;;;;;;1999.90;999.90;;;13.60;3.70;;;;;;4884774;29;20049;-77
2022/07/15 05:24:08;;;;;;;1999.90;999.90;;;13.70;4.70;;;;;;4883309;29;20048;-77
2022/07/15 05:26:34;;;;;;;1999.90;999.90;;;13.90;3.90;;;;;;4885573;29;20049;-78
2022/07/15 05:29:00;;;;;;;1999.90;999.90;;;13.90;4.10;;;;;;4887133;29;20719;-77
2022/07/15 05:31:25;;;;;;;1999.90;999.90;;;14.00;1.00;;;;;;4892455;29;20048;-77
2022/07/15 05:33:52;;;;;;;1999.90;999.90;;;14.10;1.00;;;;;;4891808;29;20470;-77
2022/07/15 05:36:18;;;;;;;1999.90;999.90;;;14.00;1.00;;;;;;4891779;29;20052;-77
2022/07/15 05:38:44;;;;;;;1999.90;999.90;;;13.90;1.00;;;;;;4892557;29;20403;-83
2022/07/15 05:41:10;;;;;;;1999.90;999.90;;;13.80;1.00;;;;;;4890557;29;20053;-77
2022/07/15 05:43:36;;;;;;;1999.90;999.90;;;13.70;1.00;;;;;;4893966;29;20050;-80
2022/07/15 05:46:02;;;;;;;1999.90;999.90;;;13.60;1.00;;;;;;4892687;29;20076;-77
2022/07/15 05:48:28;;;;;;;1999.90;999.90;;;13.60;1.00;;;;;;4893917;29;20053;-77
2022/07/15 05:50:54;;;;;;;1999.90;999.90;;;13.60;1.90;;;;;;4893712;29;20056;-77
2022/07/15 05:53:19;;;;;;;1999.90;731.60;;;13.80;11.60;;;;;;4893903;29;20092;-77
2022/07/15 05:55:45;;;;;;;1681.78;537.38;;;14.10;8.90;;;;;;4893433;29;20055;-76
2022/07/15 05:58:11;;;;;;;1061.55;268.55;;;14.30;1.00;;;;;;4894568;29;20084;-81
2022/07/15 06:00:37;;;;;;;1999.90;999.90;;;14.60;1.00;;;;;;4890045;29;20210;-77
2022/07/15 06:03:03;;;;;;;1999.90;999.90;;;14.80;1.00;;;;;;4888009;29;20148;-78
2022/07/15 06:05:30;;;;;;;1999.90;999.90;;;15.00;1.00;;;;;;4894575;29;20061;-77
2022/07/15 06:07:56;;;;;;;1999.90;999.90;;;15.20;1.00;;;;;;4895621;29;20392;-77
2022/07/15 06:10:22;;;;;;;1999.90;971.70;;;15.30;1.00;;;;;;4894691;29;20048;-77
2022/07/15 06:12:48;;;;;;;1656.25;800.25;;;15.50;1.00;;;;;;4894520;29;20049;-77
2022/07/15 06:15:14;;;;;;;1999.90;999.90;;;15.70;1.00;;;;;;4894184;29;20049;-78
2022/07/15 06:17:40;;;;;;;1744.32;843.60;;;15.80;1.00;;;;;;4894532;29;20065;-77
2022/07/15 06:20:07;;;;;;;1999.90;999.90;;;15.90;1.00;;;;;;4893765;29;20139;-77
2022/07/15 06:22:33;;;;;;;1825.25;595.90;;;16.00;1.00;;;;;;4895214;29;20049;-81
2022/07/15 06:24:59;;;;;;;1999.90;927.22;;;16.10;1.00;;;;;;4894869;29;20055;-77
2022/07/15 06:27:25;;;;;;;1999.90;999.90;;;16.20;1.00;;;;;;4892754;29;20060;-80
2022/07/15 06:29:51;;;;;;;1999.90;999.90;;;16.30;1.00;;;;;;4894865;29;20496;-78
2022/07/15 06:32:18;;;;;;;1999.90;999.90;;;16.40;1.00;;;;;;4891882;29;20080;-80
2022/07/15 06:34:44;;;;;;;1999.90;999.90;;;16.50;1.00;;;;;;4892602;29;20041;-77
2022/07/15 06:37:10;;;;;;;1999.90;959.30;;;16.50;1.00;;;;;;4897922;29;20044;-76
2022/07/15 06:39:36;;;;;;;1999.90;914.38;;;16.50;1.00;;;;;;4881834;29;20056;-79
2022/07/15 06:42:03;;;;;;;1999.90;777.55;;;16.70;1.00;;;;;;4899219;29;20048;-77
2022/07/15 06:44:29;;;;;;;1999.90;999.90;;;16.90;1.00;;;;;;4897201;29;20123;-77
2022/07/15 06:46:55;;;;;;;1999.90;999.90;;;16.90;1.00;;;;;;4896326;29;20526;-77
2022/07/15 06:49:22;;;;;;;1999.90;999.90;;;17.00;99.90;;;;;;4897180;29;20068;-76
2022/07/15 06:51:48;;;;;;;1999.90;999.90;;;17.10;1.00;;;;;;4896785;29;20573;-80
2022/07/15 06:54:14;;;;;;;1999.90;999.90;;;17.10;99.90;;;;;;4891687;29;20123;-77
2022/07/15 06:56:40;;;;;;;1999.90;999.90;;;16.90;99.90;;;;;;4885462;29;20057;-77
2022/07/15 06:59:06;;;;;;;1786.00;843.90;;;16.80;99.90;;;;;;4890550;29;20044;-79
2022/07/15 07:01:33;;;;;;;1999.90;999.90;;;16.70;1.00;;;;;;4897016;29;20108;-78
2022/07/15 07:03:59;;;;;;;1999.90;999.90;;;16.70;1.00;;;;;;4896533;29;20187;-78
2022/07/15 07:06:26;;;;;;;1999.90;947.15;;;16.60;1.00;;;;;;4898244;29;20088;-77
2022/07/15 07:08:52;;;;;;;1999.90;635.95;;;16.60;1.00;;;;;;4897057;29;20119;-77
2022/07/15 07:11:19;;;;;;;1999.90;794.72;;;16.60;1.00;;;;;;4896939;29;20056;-78
2022/07/15 07:13:46;;;;;;;1613.73;990.53;;;17.20;1.00;;;;;;4898719;29;20119;-77
2022/07/15 07:16:12;;;;;;;1038.93;928.83;;;18.80;99.90;;;;;;4897416;29;20056;-77
2022/07/15 07:18:38;;;;;;;1090.95;970.50;;;20.60;99.90;;;;;;4895450;29;20040;-78
2022/07/15 07:21:04;;;;;;;578.63;538.75;;;22.20;99.90;;;;;;4893844;29;20051;-77
2022/07/15 07:23:31;;;;;;;614.83;570.75;;;23.00;99.90;;;;;;4897761;29;20132;-76
2022/07/15 07:25:58;;;;;;;721.10;660.63;;;23.80;99.90;;;;;;4897796;29;20057;-77
2022/07/15 07:28:24;;;;;;;721.13;666.53;;;24.20;99.90;;;;;;4896700;29;20080;-77
2022/07/15 07:30:52;;;;;;;645.05;596.50;;;24.80;99.90;;;;;;4896464;29;20090;-78
2022/07/15 07:33:18;;;;;;;795.95;736.15;;;25.50;99.90;;;;;;4897843;29;20075;-78
2022/07/15 07:35:44;;;;;;;929.63;649.85;;;26.40;99.90;;;;;;4898165;29;20521;-77
2022/07/15 07:38:11;;;;;;;1999.90;999.90;;;26.80;99.90;;;;;;4896653;29;20055;-77
2022/07/15 07:40:36;;;;;;;1999.90;999.90;;;27.50;99.90;;;;;;4897205;29;20048;-77
2022/07/15 07:43:02;;;;;;;1999.90;999.90;;;28.10;99.90;;;;;;4890115;29;20100;-78
2022/07/15 07:45:28;;;;;;;1999.90;999.90;;;28.00;99.90;;;;;;4883940;29;20048;-76
2022/07/15 07:47:55;;;;;;;1999.90;999.90;;;28.10;99.90;;;;;;4897162;29;20513;-77
2022/07/15 07:50:21;;;;;;;1999.90;999.90;;;28.10;99.90;;;;;;4897461;29;20048;-77
2022/07/15 07:52:47;;;;;;;1999.90;999.90;;;27.70;99.90;;;;;;4897284;29;20131;-77
2022/07/15 07:55:14;;;;;;;1999.90;999.90;;;27.80;99.90;;;;;;4896806;29;20113;-77
2022/07/15 07:57:54;;;;;;;627.55;584.60;;;27.20;99.90;;;;;;4890936;29;20249;-90
2022/07/15 08:00:20;;;;;;;500.05;466.38;;;26.30;99.90;;;;;;4895780;29;20581;-77
2022/07/15 08:02:47;;;;;;;524.65;488.92;;;24.80;99.90;;;;;;4895646;29;20056;-76
2022/07/15 08:05:14;;;;;;;464.45;433.05;;;23.50;99.90;;;;;;4892713;29;20052;-76
2022/07/15 08:07:41;;;;;;;768.28;708.83;;;22.70;99.90;;;;;;4890936;29;20060;-77
2022/07/15 08:10:08;;;;;;;834.53;768.88;;;22.00;99.90;;;;;;4894963;29;20120;-76
2022/07/15 08:12:36;;;;;;;680.53;627.58;;;21.40;99.90;;;;;;4895241;29;20055;-77
2022/07/15 08:15:02;;;;;;;1999.90;999.90;;;20.80;99.90;;;;;;4891556;29;20058;-76
2022/07/15 08:17:27;;;;;;;1999.90;999.90;;;20.20;99.90;;;;;;4885344;29;20048;-76
2022/07/15 08:19:54;;;;;;;1999.90;999.90;;;19.90;99.90;;;;;;4893687;29;20037;-77
2022/07/15 08:22:20;;;;;;;1999.90;999.90;;;20.30;99.90;;;;;;4895007;29;20064;-77
2022/07/15 08:24:45;;;;;;;1999.90;999.90;;;21.80;99.90;;;;;;4893017;29;20044;-77
2022/07/15 08:27:11;;;;;;;1999.90;999.90;;;24.20;99.90;;;;;;4894048;29;20044;-79
2022/07/15 08:29:38;;;;;;;1999.90;999.90;;;25.70;99.90;;;;;;4894616;29;20107;-77
2022/07/15 08:32:04;;;;;;;1999.90;999.90;;;26.60;99.90;;;;;;4895285;29;20053;-77
2022/07/15 08:34:30;;;;;;;1999.90;999.90;;;26.30;99.90;;;;;;4892681;29;20052;-77
2022/07/15 08:36:56;;;;;;;1999.90;999.90;;;25.50;99.90;;;;;;4893027;29;20060;-82
2022/07/15 08:39:22;;;;;;;1999.90;999.90;;;24.00;99.90;;;;;;4893814;29;20045;-77
2022/07/15 08:41:48;;;;;;;1999.90;999.90;;;23.50;99.90;;;;;;4894486;29;20348;-77
2022/07/15 08:44:14;;;;;;;1999.90;999.90;;;22.80;99.90;;;;;;4896110;29;20131;-77
2022/07/15 08:46:44;;;;;;;1999.90;999.90;;;22.00;99.90;;;;;;4895666;29;20451;-78
2022/07/15 08:49:15;;;;;;;1999.90;999.90;;;21.50;99.90;;;;;;4890933;29;20067;-77
2022/07/15 08:51:44;;;;;;;1999.90;999.90;;;21.10;99.90;;;;;;4896159;29;20044;-77
2022/07/15 08:54:10;;;;;;;1999.90;999.90;;;20.90;99.90;;;;;;4890909;29;20399;-78
2022/07/15 08:56:37;;;;;;;1999.90;999.90;;;20.70;99.90;;;;;;4894298;29;20111;-78
2022/07/15 08:59:04;;;;;;;1999.90;999.90;;;20.60;99.90;;;;;;4891422;29;20041;-78
2022/07/15 09:01:31;;;;;;;1999.90;999.90;;;20.50;99.90;;;;;;4893931;29;20533;-79
2022/07/15 09:03:58;;;;;;;1999.90;999.90;;;20.40;99.90;;;;;;4888779;29;20044;-78
2022/07/15 09:06:32;;;;;;;1999.90;999.90;;;20.70;99.90;;;;;;4896204;29;20048;-78
2022/07/15 09:08:57;;;;;;;1999.90;999.90;;;21.40;99.90;;;;;;4888249;29;20391;-78
2022/07/15 09:11:29;;;;;;;1999.90;999.90;;;23.00;99.90;;;;;;4893870;29;20049;-77
2022/07/15 09:13:59;;;;;;;1999.90;999.90;;;24.90;99.90;;;;;;4893107;29;20128;-79
2022/07/15 09:16:25;;;;;;;1999.90;999.90;;;27.00;99.90;;;;;;4893071;29;20049;-78
2022/07/15 09:18:51;;;;;;;1999.90;999.90;;;27.60;99.90;;;;;;4893927;29;20083;-78
2022/07/15 09:21:17;;;;;;;1999.90;999.90;;;27.30;99.90;;;;;;4895064;29;20484;-78
2022/07/15 09:23:42;;;;;;;470.45;439.08;;;26.10;99.90;;;;;;4894657;29;20055;-78
2022/07/15 09:26:32;;;;;;;1291.35;770.53;;;24.70;99.90;;;;;;4893252;29;20053;-77
2022/07/15 09:28:59;;;;;;;1999.90;999.90;;;23.80;99.90;;;;;;4881209;29;20478;-77
2022/07/15 09:34:12;;;;;;;1999.90;999.90;;;22.10;99.90;;;;;;4885049;29;20052;-77
2022/07/15 09:36:42;;;;;;;1999.90;999.90;;;21.80;99.90;;;;;;4892139;29;20075;-78
2022/07/15 09:39:08;;;;;;;1999.90;999.90;;;21.60;99.90;;;;;;4894347;29;20052;-79
2022/07/15 09:41:36;;;;;;;1999.90;999.90;;;21.50;99.90;;;;;;4892957;29;20104;-77
2022/07/15 09:44:05;;;;;;;1999.90;999.90;;;21.60;99.90;;;;;;4884550;29;20085;-77
2022/07/15 09:46:43;;;;;;;1999.90;999.90;;;21.80;99.90;;;;;;4892455;29;20496;-87
2022/07/15 09:49:10;;;;;;;1999.90;999.90;;;21.90;99.90;;;;;;4894810;29;20079;-77
2022/07/15 09:51:43;;;;;;;1999.90;999.90;;;22.00;99.90;;;;;;4889049;29;20071;-79
2022/07/15 09:54:12;;;;;;;1999.90;999.90;;;21.90;99.90;;;;;;4894350;29;20048;-77
2022/07/15 09:56:38;;;;;;;1999.90;999.90;;;21.80;99.90;;;;;;4893061;29;20053;-76
2022/07/15 09:59:04;;;;;;;1999.90;999.90;;;21.70;99.90;;;;;;4890731;29;21492;-77
2022/07/15 10:01:30;;;;;;;1999.90;999.90;;;21.70;99.90;;;;;;4885817;29;20756;-77
2022/07/15 10:03:57;;;;;;;1999.90;999.90;;;21.70;99.90;;;;;;4888331;29;20045;-86
2022/07/15 10:06:26;;;;;;;1999.90;999.90;;;21.90;99.90;;;;;;4886352;29;20040;-79
2022/07/15 10:08:53;;;;;;;1999.90;999.90;;;22.10;99.90;;;;;;4890108;29;20048;-76
2022/07/15 10:11:20;;;;;;;1999.90;999.90;;;22.30;99.90;;;;;;4889949;29;20104;-76
2022/07/15 10:13:46;;;;;;;1999.90;999.90;;;22.30;99.90;;;;;;4889109;29;20107;-81
2022/07/15 10:16:49;;;;;;;1999.90;999.90;;;22.40;99.90;;;;;;4888031;29;20056;-77
2022/07/15 10:19:56;;;;;;;1999.90;999.90;;;22.40;99.90;;;;;;4879435;29;20081;-78
2022/07/15 10:22:52;;;;;;;1999.90;999.90;;;22.40;99.90;;;;;;4894671;29;20087;-78
2022/07/15 10:25:31;;;;;;;1999.90;999.90;;;22.40;99.90;;;;;;4887647;29;20153;-79
2022/07/15 10:28:19;;;;;;;1999.90;999.90;;;22.40;99.90;;;;;;4894680;29;20053;-77
2022/07/15 10:30:45;;;;;;;1999.90;999.90;;;22.30;99.90;;;;;;4897209;29;20068;-76
2022/07/15 10:33:18;;;;;;;1999.90;999.90;;;22.20;99.90;;;;;;4897470;29;20048;-87
2022/07/15 10:35:52;;;;;;;1999.90;999.90;;;22.30;99.90;;;;;;4892879;29;20053;-78
2022/07/15 10:38:36;;;;;;;1999.90;999.90;;;23.70;99.90;;;;;;4895982;29;20442;-77
2022/07/15 10:41:20;;;;;;;1999.90;999.90;;;25.70;99.90;;;;;;4890551;29;20060;-78
2022/07/15 10:43:54;;;;;;;1999.90;999.90;;;27.70;99.90;;;;;;4895288;29;20120;-78
2022/07/15 10:46:25;;;;;;;1999.90;999.90;;;28.70;99.90;;;;;;4892516;29;20529;-81
2022/07/15 10:49:00;;;;;;;1999.90;999.90;;;29.00;99.90;;;;;;4890091;29;20052;-78
2022/07/15 10:51:35;;;;;;;1999.90;999.90;;;28.50;99.90;;;;;;4897744;29;20116;-77
2022/07/15 10:54:19;;;;;;;1999.90;999.90;;;28.30;99.90;;;;;;4892302;29;20049;-79
2022/07/15 10:56:47;;;;;;;1632.05;871.92;;;27.80;99.90;;;;;;4886712;29;20113;-76
2022/07/15 10:59:23;;;;;;;1659.30;897.70;;;27.10;99.90;;;;;;4897131;29;20071;-77
2022/07/15 11:02:00;;;;;;;1639.85;879.95;;;26.50;99.90;;;;;;4898213;29;20510;-76
2022/07/15 11:04:28;;;;;;;1236.90;720.03;;;25.90;99.90;;;;;;4895262;29;20384;-77
2022/07/15 11:07:11;;;;;;;863.13;588.08;;;25.20;99.90;;;;;;4897773;29;20087;-77
2022/07/15 11:10:01;;;;;;;486.98;451.75;;;24.60;99.90;;;;;;4897021;29;20044;-84
2022/07/15 11:12:30;;;;;;;350.38;328.70;;;24.50;99.90;;;;;;4896721;29;20490;-78
2022/07/15 11:14:57;;;;;;;445.50;414.40;;;24.50;99.90;;;;;;4897076;29;20120;-77
2022/07/15 11:17:28;;;;;;;923.37;571.93;;;24.10;99.90;;;;;;4898065;29;20055;-79
2022/07/15 11:19:57;;;;;;;1999.90;999.90;;;23.70;99.90;;;;;;4890951;29;20301;-77
2022/07/15 11:22:26;;;;;;;501.63;464.50;;;23.40;99.90;;;;;;4894843;29;20123;-77
2022/07/15 11:24:52;;;;;;;1999.90;999.90;;;23.00;99.90;;;;;;4884945;29;20490;-77
2022/07/15 11:27:19;;;;;;;1616.30;858.10;;;22.70;99.90;;;;;;4890377;29;20049;-77
2022/07/15 11:29:59;;;;;;;1999.90;999.90;;;22.40;99.90;;;;;;4893310;29;20063;-77
2022/07/15 11:32:25;;;;;;;1999.90;999.90;;;22.40;99.90;;;;;;4896420;29;20044;-77
2022/07/15 11:34:54;;;;;;;1999.90;999.90;;;22.40;99.90;;;;;;4895621;29;20045;-77
2022/07/15 11:37:28;;;;;;;1161.75;650.88;;;22.70;99.90;;;;;;4898040;29;20171;-77
2022/07/15 11:45:46;;;;;;;1999.90;999.90;;;25.10;99.90;;;;;;4894832;29;20057;-77
2022/07/15 11:48:12;;;;;;;1999.90;999.90;;;24.90;99.90;;;;;;4892825;29;20045;-77
2022/07/15 11:50:51;;;;;;;1999.90;999.90;;;25.10;99.90;;;;;;4893425;29;20061;-77
2022/07/15 11:53:17;;;;;;;1999.90;999.90;;;25.10;99.90;;;;;;4896458;29;20049;-77
2022/07/15 11:55:53;;;;;;;1999.90;999.90;;;25.30;99.90;;;;;;4889496;29;20074;-86
2022/07/15 11:58:33;;;;;;;1999.90;999.90;;;25.40;99.90;;;;;;4895641;29;20071;-77
2022/07/15 12:01:05;;;;;;;1622.50;863.15;;;26.30;99.90;;;;;;4892857;29;20056;-77
2022/07/15 12:03:32;;;;;;;1999.90;999.90;;;27.90;99.90;;;;;;4891864;29;20048;-85
2022/07/15 12:06:05;;;;;;;1999.90;999.90;;;28.60;99.90;;;;;;4895259;29;20127;-82
2022/07/15 12:08:55;;;;;;;1999.90;999.90;;;28.40;99.90;;;;;;4889723;29;20112;-77
2022/07/15 12:11:30;;;;;;;327.50;301.67;;;28.10;99.90;;;;;;4895921;29;20171;-78
2022/07/15 12:14:09;;;;;;;1152.80;640.53;;;27.80;99.90;;;;;;4895221;29;20064;-79
2022/07/15 12:16:44;;;;;;;1660.95;897.03;;;27.60;99.90;;;;;;4894020;29;20402;-79
2022/07/15 12:19:14;;;;;;;1634.85;873.20;;;27.60;99.90;;;;;;4891733;29;20130;-79
2022/07/15 12:21:43;;;;;;;508.63;464.10;;;28.40;99.90;;;;;;4890914;29;20087;-79
2022/07/15 12:24:10;;;;;;;1999.90;999.90;;;29.20;99.90;;;;;;4887310;29;20045;-79